Time;durP1;ratioP1;P1;durP2;ratioP2;P2;SDS_P1;SDS_P2;PMS_P1;PMS_P2;Temp;Humidity;BMP_temperature;BMP_pressure;BME280_temperature;BME280_humidity;BME280_pressure;Samples;Min_cycle;Max_cycle;Signal;HPM_P1;HPM_P2
2023/03/02 00:01:20;;;;;;;24.85;15.32;;;;;;;5.61;100.00;98677.28;4951811;28;20302;-65
2023/03/02 00:03:45;;;;;;;20.42;14.23;;;;;;;5.76;100.00;98704.81;4951585;29;20185;-65
2023/03/02 00:06:11;;;;;;;25.52;15.02;;;;;;;5.55;100.00;98654.41;4951882;29;20232;-65
2023/03/02 00:08:37;;;;;;;19.90;13.77;;;;;;;5.86;100.00;98690.69;4952057;29;20217;-65
2023/03/02 00:11:02;;;;;;;25.35;13.48;;;;;;;5.91;100.00;98740.09;4951768;29;20694;-65
2023/03/02 00:13:29;;;;;;;21.95;13.73;;;;;;;6.02;100.00;98750.75;4951769;28;20268;-64
2023/03/02 00:15:54;;;;;;;27.20;15.43;;;;;;;6.02;100.00;98745.59;4951452;28;20703;-65
2023/03/02 00:18:20;;;;;;;20.08;13.30;;;;;;;6.16;100.00;98743.22;4971417;28;20188;-64
2023/03/02 00:20:45;;;;;;;18.83;13.18;;;;;;;5.68;100.00;98693.22;4972889;28;20204;-64
2023/03/02 00:23:10;;;;;;;24.00;14.80;;;;;;;5.67;100.00;98702.66;4972962;28;20677;-64
2023/03/02 00:25:39;;;;;;;26.45;14.85;;;;;;;5.76;100.00;98694.53;4972934;28;20188;-64
2023/03/02 00:28:04;;;;;;;26.30;15.13;;;;;;;5.93;100.00;98706.63;4974372;28;20173;-65
2023/03/02 00:30:29;;;;;;;22.23;13.70;;;;;;;5.79;100.00;98693.56;4976338;28;20188;-64
2023/03/02 00:32:57;;;;;;;21.13;14.30;;;;;;;5.40;100.00;98637.16;4976235;28;20184;-64
2023/03/02 00:35:22;;;;;;;20.00;13.43;;;;;;;5.99;100.00;98744.88;4976243;28;20187;-65
2023/03/02 00:37:48;;;;;;;22.05;13.48;;;;;;;5.49;100.00;98646.97;4973960;28;20192;-65
2023/03/02 00:40:14;;;;;;;22.05;14.23;;;;;;;6.05;100.00;98732.59;4974242;28;20217;-65
2023/03/02 00:42:39;;;;;;;19.77;13.23;;;;;;;5.73;100.00;98681.84;4974245;28;20663;-64
2023/03/02 00:45:05;;;;;;;15.95;11.65;;;;;;;5.73;100.00;98686.97;4973780;28;20647;-64
2023/03/02 00:47:35;;;;;;;19.40;12.60;;;;;;;5.83;100.00;98688.25;4973787;28;20745;-65
2023/03/02 00:50:02;;;;;;;15.48;11.40;;;;;;;6.15;100.00;98740.72;4973930;28;20671;-65
2023/03/02 00:52:31;;;;;;;13.70;8.90;;;;;;;5.98;100.00;98713.25;4973754;28;20811;-65
2023/03/02 00:54:57;;;;;;;13.13;9.00;;;;;;;5.79;100.00;98686.72;4973487;28;20283;-65
2023/03/02 00:57:25;;;;;;;13.15;8.85;;;;;;;6.03;100.00;98731.84;4973582;28;20327;-65
2023/03/02 00:59:50;;;;;;;13.98;7.65;;;;;;;5.76;100.00;98681.69;4973717;28;20291;-65
2023/03/02 01:02:16;;;;;;;11.32;7.72;;;;;;;6.22;100.00;98737.81;4973412;28;20754;-64
2023/03/02 01:04:42;;;;;;;11.10;7.72;;;;;;;6.04;100.00;98679.56;4973703;28;20207;-65
2023/03/02 01:07:19;;;;;;;11.13;8.90;;;;;;;6.36;100.00;98732.84;4973389;28;20215;-65
2023/03/02 01:09:47;;;;;;;17.27;11.13;;;;;;;6.42;100.00;98734.31;4975666;28;20196;-65
2023/03/02 01:12:13;;;;;;;19.20;11.95;;;;;;;6.03;100.00;98677.91;4975592;28;20327;-64
2023/03/02 01:14:42;;;;;;;17.23;11.85;;;;;;;6.09;100.00;98680.19;4975552;28;20173;-65
2023/03/02 01:17:09;;;;;;;17.83;12.48;;;;;;;6.46;100.00;98723.81;4973302;28;20200;-65
2023/03/02 01:19:34;;;;;;;19.20;12.77;;;;;;;6.13;100.00;98666.28;4973542;28;20277;-65
2023/03/02 01:22:00;;;;;;;20.17;12.35;;;;;;;6.34;100.00;98698.69;4973315;28;20189;-65
2023/03/02 01:24:26;;;;;;;20.17;13.48;;;;;;;6.43;100.00;98718.84;4973358;28;20192;-65
2023/03/02 01:26:52;;;;;;;26.77;14.25;;;;;;;6.28;100.00;98667.31;4973435;28;20228;-65
2023/03/02 01:29:17;;;;;;;19.52;13.63;;;;;;;6.57;100.00;98729.28;4972975;28;20180;-65
2023/03/02 01:31:42;;;;;;;24.63;15.25;;;;;;;6.22;100.00;98673.59;4953711;29;20193;-65
2023/03/02 01:34:08;;;;;;;21.30;13.55;;;;;;;5.94;100.00;98613.31;4953800;29;20595;-65
2023/03/02 01:36:33;;;;;;;25.42;14.30;;;;;;;6.51;100.00;98700.47;4934356;29;20233;-65
2023/03/02 01:38:59;;;;;;;18.17;13.43;;;;;;;6.58;100.00;98714.72;4934157;29;20615;-65
2023/03/02 01:41:25;;;;;;;16.75;12.77;;;;;;;6.55;100.00;98704.56;4934403;29;20201;-65
2023/03/02 01:43:51;;;;;;;20.02;13.15;;;;;;;6.53;100.00;98709.75;4934423;29;20209;-65
2023/03/02 01:46:26;;;;;;;18.90;12.13;;;;;;;6.61;100.00;98705.13;4934557;29;20190;-65
2023/03/02 01:49:03;;;;;;;16.98;11.10;;;;;;;6.62;100.00;98699.06;4934844;29;20263;-65
2023/03/02 01:51:33;;;;;;;14.80;10.95;;;;;;;6.39;100.00;98647.91;4934781;29;20200;-65
2023/03/02 01:54:06;;;;;;;19.60;11.77;;;;;;;6.61;100.00;98701.69;4933905;29;20190;-65
2023/03/02 01:56:36;;;;;;;15.63;10.25;;;;;;;6.32;100.00;98636.28;4934463;29;20209;-65
2023/03/02 01:59:11;;;;;;;17.73;10.75;;;;;;;6.49;100.00;98663.72;4915504;29;20323;-64
2023/03/02 02:01:41;;;;;;;16.80;10.52;;;;;;;6.67;100.00;98691.97;4916431;29;20200;-65
2023/03/02 02:04:08;;;;;;;20.10;9.82;;;;;;;6.41;100.00;98638.38;4933995;29;20193;-65
2023/03/02 02:06:54;;;;;;;15.57;9.48;;;;;;;6.85;100.00;98706.50;4935505;29;20290;-65
2023/03/02 02:09:22;;;;;;;16.45;10.25;;;;;;;6.81;100.00;98702.41;4953671;29;20252;-65
2023/03/02 02:11:48;;;;;;;15.27;10.40;;;;;;;6.71;100.00;98690.06;4952894;28;20621;-65
2023/03/02 02:14:14;;;;;;;12.45;8.88;;;;;;;6.40;100.00;98661.63;4953272;29;20289;-65
2023/03/02 02:16:40;;;;;;;13.80;8.82;;;;;;;6.49;100.00;98662.00;4953076;29;20703;-65
2023/03/02 02:19:27;;;;;;;14.45;9.77;;;;;;;6.65;100.00;98711.75;4952725;29;20621;-65
2023/03/02 02:21:53;;;;;;;13.00;9.15;;;;;;;6.70;100.00;98699.50;4953035;29;20225;-65
2023/03/02 02:24:30;;;;;;;18.35;10.70;;;;;;;6.39;100.00;98642.78;4952986;29;20189;-65
2023/03/02 02:26:56;;;;;;;15.60;9.35;;;;;;;6.51;100.00;98643.91;4953232;29;20231;-65
2023/03/02 02:29:44;;;;;;;14.50;8.88;;;;;;;6.85;100.00;98693.63;4957773;28;20283;-65
2023/03/02 02:32:15;;;;;;;17.23;10.23;;;;;;;6.97;100.00;98702.47;4974478;28;20168;-65
2023/03/02 02:34:47;;;;;;;13.10;9.85;;;;;;;6.66;100.00;98645.75;4974407;28;20168;-65
2023/03/02 02:37:20;;;;;;;13.73;8.60;;;;;;;7.16;100.00;98698.91;4974006;28;20239;-65
2023/03/02 02:39:48;;;;;;;13.15;8.63;;;;;;;6.57;100.00;98631.59;4974273;28;20196;-65
2023/03/02 02:42:22;;;;;;;14.15;8.05;;;;;;;6.62;100.00;98631.38;4973958;28;20681;-65
2023/03/02 02:44:48;;;;;;;17.25;8.80;;;;;;;6.85;100.00;98659.34;4974542;28;20238;-65
2023/03/02 02:47:17;;;;;;;16.25;9.82;;;;;;;6.43;100.00;98592.91;4973903;28;20176;-65
2023/03/02 02:49:43;;;;;;;13.05;9.23;;;;;;;6.61;100.00;98625.41;4973863;28;20184;-65
2023/03/02 02:52:13;;;;;;;12.73;8.05;;;;;;;6.82;100.00;98667.22;4972915;28;20701;-65
2023/03/02 02:54:38;;;;;;;15.95;8.73;;;;;;;6.56;100.00;98632.53;4974145;28;20227;-64
2023/03/02 02:57:04;;;;;;;17.98;9.35;;;;;;;6.79;100.00;98681.06;4973768;28;20547;-65
2023/03/02 02:59:39;;;;;;;18.83;8.32;;;;;;;6.84;100.00;98673.13;4973661;28;20203;-65
2023/03/02 03:02:05;;;;;;;15.85;9.52;;;;;;;6.51;100.00;98621.63;4974301;28;20164;-65
2023/03/02 03:04:31;;;;;;;14.95;8.48;;;;;;;6.72;100.00;98656.56;4971489;28;20204;-65
2023/03/02 03:07:04;;;;;;;17.65;9.38;;;;;;;6.45;100.00;98614.22;4972043;28;20551;-65
2023/03/02 03:09:30;;;;;;;15.95;9.68;;;;;;;6.73;100.00;98668.53;4971719;28;20200;-65
2023/03/02 03:12:01;;;;;;;19.27;8.82;;;;;;;6.64;100.00;98653.53;4971297;28;20176;-65
2023/03/02 03:14:33;;;;;;;15.05;9.30;;;;;;;6.45;100.00;98623.66;4971354;28;20757;-65
2023/03/02 03:16:58;;;;;;;19.17;10.57;;;;;;;6.67;100.00;98652.56;4971534;28;20184;-65
2023/03/02 03:19:29;;;;;;;15.98;9.90;;;;;;;6.51;100.00;98616.47;4971181;28;20204;-65
2023/03/02 03:21:58;;;;;;;19.08;9.07;;;;;;;6.74;100.00;98664.19;4971317;28;20199;-65
2023/03/02 03:24:25;;;;;;;21.42;9.63;;;;;;;6.50;100.00;98617.41;4971999;28;20730;-65
2023/03/02 03:26:55;;;;;;;17.58;9.15;;;;;;;6.91;100.00;98666.75;4971143;28;20184;-65
2023/03/02 03:29:23;;;;;;;11.85;8.50;;;;;;;6.64;100.00;98627.81;4971298;28;20216;-65
2023/03/02 03:31:49;;;;;;;20.35;9.63;;;;;;;6.60;100.00;98617.78;4971115;28;20589;-65
2023/03/02 03:34:15;;;;;;;16.00;9.05;;;;;;;6.46;100.00;98608.16;4971363;28;20571;-64
2023/03/02 03:36:42;;;;;;;13.43;8.93;;;;;;;6.46;100.00;98608.16;4971106;28;20177;-64
2023/03/02 03:39:09;;;;;;;14.20;8.10;;;;;;;6.68;100.00;98631.91;4970976;28;20204;-64
2023/03/02 03:41:34;;;;;;;14.73;8.50;;;;;;;6.77;100.00;98654.59;4971793;28;20658;-64
2023/03/02 03:43:59;;;;;;;15.55;8.70;;;;;;;6.80;100.00;98657.03;4973325;28;20228;-64
2023/03/02 03:46:25;;;;;;;15.43;8.57;;;;;;;6.94;100.00;98667.44;4973284;28;20239;-64
2023/03/02 03:48:50;;;;;;;14.48;8.57;;;;;;;6.75;100.00;98666.69;4973789;28;20173;-64
2023/03/02 03:51:16;;;;;;;22.10;9.30;;;;;;;6.85;100.00;98667.91;4973550;28;20176;-64
2023/03/02 03:53:42;;;;;;;17.02;9.43;;;;;;;6.65;100.00;98626.91;4973225;28;20632;-64
2023/03/02 03:56:07;;;;;;;26.83;8.93;;;;;;;6.83;100.00;98656.84;4973872;28;20302;-64
2023/03/02 03:58:33;;;;;;;14.05;8.57;;;;;;;6.87;100.00;98667.84;4973700;28;20184;-64
2023/03/02 04:00:58;;;;;;;17.15;10.20;;;;;;;6.62;100.00;98619.38;4973106;28;20204;-64
2023/03/02 04:03:24;;;;;;;19.73;10.32;;;;;;;6.89;100.00;98655.72;4975474;28;20172;-64
2023/03/02 04:05:51;;;;;;;19.15;10.32;;;;;;;6.96;100.00;98665.66;4976918;28;20658;-64
2023/03/02 04:08:16;;;;;;;16.13;10.85;;;;;;;6.52;100.00;98589.06;4976875;28;20215;-64
2023/03/02 04:10:42;;;;;;;20.15;10.13;;;;;;;6.47;100.00;98599.53;4976820;28;20195;-64
2023/03/02 04:13:08;;;;;;;17.50;9.00;;;;;;;6.48;100.00;98608.91;4976785;28;20183;-64
2023/03/02 04:15:34;;;;;;;15.43;9.15;;;;;;;6.38;100.00;98600.00;4976753;28;20192;-64
2023/03/02 04:17:59;;;;;;;22.27;9.68;;;;;;;6.66;100.00;98658.59;4955122;29;20217;-64
2023/03/02 04:20:26;;;;;;;17.63;9.95;;;;;;;6.43;100.00;98623.75;4955849;28;20228;-65
2023/03/02 04:22:53;;;;;;;14.80;9.68;;;;;;;6.49;100.00;98617.47;4955243;28;20205;-64
2023/03/02 04:25:21;;;;;;;19.83;10.77;;;;;;;6.70;100.00;98653.22;4955269;28;20185;-64
2023/03/02 04:27:49;;;;;;;13.20;9.43;;;;;;;6.43;100.00;98623.75;4955348;29;20812;-64
2023/03/02 04:30:18;;;;;;;16.35;8.95;;;;;;;6.61;100.00;98665.69;4954880;29;20189;-64
2023/03/02 04:32:44;;;;;;;14.98;9.77;;;;;;;6.55;100.00;98684.84;4955197;29;20186;-64
2023/03/02 04:35:11;;;;;;;18.15;10.65;;;;;;;6.31;100.00;98669.75;4955118;29;20582;-64
2023/03/02 04:37:37;;;;;;;15.50;9.48;;;;;;;6.00;100.00;98625.88;4955074;28;20181;-64
2023/03/02 04:40:03;;;;;;;18.98;9.95;;;;;;;6.24;100.00;98673.50;4954664;28;20212;-64
2023/03/02 04:42:28;;;;;;;24.55;10.68;;;;;;;5.81;100.00;98625.03;4954583;28;20564;-64
2023/03/02 04:44:54;;;;;;;18.15;11.18;;;;;;;6.25;100.00;98681.16;4955019;29;20200;-64
2023/03/02 04:47:19;;;;;;;15.40;10.20;;;;;;;6.33;100.00;98681.63;4955040;29;20188;-64
2023/03/02 04:49:44;;;;;;;21.30;12.10;;;;;;;6.38;100.00;98676.25;4970641;28;20722;-64
2023/03/02 04:52:10;;;;;;;18.92;11.57;;;;;;;6.34;100.00;98660.16;4973830;28;20183;-64
2023/03/02 04:54:35;;;;;;;17.45;10.38;;;;;;;6.41;100.00;98686.41;4973908;28;20220;-64
2023/03/02 04:57:01;;;;;;;21.00;11.65;;;;;;;6.13;100.00;98643.16;4974083;28;20189;-65
2023/03/02 04:59:28;;;;;;;16.48;10.15;;;;;;;6.50;100.00;98691.94;4973644;28;20209;-64
2023/03/02 05:02:01;;;;;;;20.60;11.63;;;;;;;5.69;100.00;98556.25;4973624;28;20188;-65
2023/03/02 05:04:28;;;;;;;13.55;10.98;;;;;;;6.40;100.00;98698.41;4973662;28;20173;-64
2023/03/02 05:06:54;;;;;;;15.98;10.57;;;;;;;6.38;100.00;98689.94;4973546;28;20237;-64
2023/03/02 05:09:25;;;;;;;18.52;11.30;;;;;;;5.92;100.00;98605.69;4973797;28;20196;-64
2023/03/02 05:11:51;;;;;;;16.98;11.10;;;;;;;6.38;100.00;98687.38;4973922;28;20176;-64
2023/03/02 05:14:16;;;;;;;18.85;11.77;;;;;;;5.09;100.00;98511.19;4972598;28;20589;-64
2023/03/02 05:16:42;;;;;;;21.80;11.75;;;;;;;6.08;100.00;98699.09;4973461;28;20678;-64
2023/03/02 05:19:10;;;;;;;17.98;11.82;;;;;;;5.58;100.00;98605.53;4973742;28;20209;-64
2023/03/02 05:21:35;;;;;;;19.55;12.73;;;;;;;5.79;100.00;98658.47;4969656;28;20252;-63
2023/03/02 05:24:02;;;;;;;21.73;13.07;;;;;;;6.14;100.00;98703.94;4954177;29;20205;-64
2023/03/02 05:26:27;;;;;;;17.75;12.60;;;;;;;5.73;100.00;98635.66;4954075;28;20188;-64
2023/03/02 05:28:53;;;;;;;22.58;12.80;;;;;;;6.24;100.00;98705.16;4953773;29;20177;-64
2023/03/02 05:31:22;;;;;;;18.45;12.30;;;;;;;6.28;100.00;98706.69;4953860;29;20259;-64
2023/03/02 05:33:48;;;;;;;22.17;12.50;;;;;;;6.07;100.00;98656.31;4953933;29;20240;-64
2023/03/02 05:36:14;;;;;;;26.75;14.02;;;;;;;6.34;100.00;98716.69;4935006;29;20190;-64
2023/03/02 05:38:43;;;;;;;18.50;12.85;;;;;;;6.27;100.00;98712.75;4934897;29;20209;-64
2023/03/02 05:41:08;;;;;;;22.90;13.05;;;;;;;6.39;100.00;98706.19;4934728;29;20213;-64
2023/03/02 05:43:34;;;;;;;18.63;12.23;;;;;;;6.41;100.00;98712.91;4915282;29;20201;-64
2023/03/02 05:46:01;;;;;;;21.45;13.02;;;;;;;6.42;100.00;98714.56;4915735;29;20768;-64
2023/03/02 05:48:27;;;;;;;14.23;11.40;;;;;;;6.23;100.00;98672.66;4915428;29;20195;-64
2023/03/02 05:50:53;;;;;;;17.48;11.52;;;;;;;6.22;100.00;98681.28;4915331;29;20230;-64
2023/03/02 05:53:18;;;;;;;17.98;11.10;;;;;;;6.39;100.00;98714.75;4915530;29;20229;-64
2023/03/02 05:55:43;;;;;;;17.85;11.30;;;;;;;6.52;100.00;98725.28;4915133;29;20204;-64
2023/03/02 05:58:13;;;;;;;22.20;12.48;;;;;;;6.39;100.00;98709.59;4915137;29;20191;-64
2023/03/02 06:00:39;;;;;;;18.42;12.80;;;;;;;6.46;100.00;98730.72;4914858;29;20314;-64
2023/03/02 06:03:04;;;;;;;18.55;13.27;;;;;;;6.01;100.00;98666.84;4914957;29;20726;-64
2023/03/02 06:05:30;;;;;;;18.27;12.98;;;;;;;6.42;100.00;98724.03;4915166;29;20273;-64
2023/03/02 06:07:55;;;;;;;18.65;12.60;;;;;;;6.44;100.00;98728.22;4930335;29;20193;-64
2023/03/02 06:10:23;;;;;;;25.92;12.77;;;;;;;6.43;100.00;98736.84;4934342;29;20193;-65
2023/03/02 06:12:49;;;;;;;21.73;12.90;;;;;;;6.24;100.00;98681.22;4933757;29;20189;-64
2023/03/02 06:15:14;;;;;;;17.48;13.05;;;;;;;6.33;100.00;98673.91;4966375;28;20191;-64
2023/03/02 06:17:40;;;;;;;15.65;10.98;;;;;;;6.79;100.00;98729.94;4974442;28;20177;-64
2023/03/02 06:20:09;;;;;;;18.73;11.90;;;;;;;6.28;100.00;98641.63;4974306;28;20204;-64
2023/03/02 06:22:43;;;;;;;14.38;10.88;;;;;;;6.57;100.00;98688.16;4974582;28;20208;-64
2023/03/02 06:25:14;;;;;;;16.58;10.82;;;;;;;6.41;100.00;98673.56;4974926;28;20227;-64
2023/03/02 06:27:39;;;;;;;20.80;12.38;;;;;;;6.36;100.00;98678.88;4993599;28;20168;-64
2023/03/02 06:30:06;;;;;;;19.40;12.48;;;;;;;6.78;100.00;98755.72;4993173;28;20191;-64
2023/03/02 06:32:33;;;;;;;22.25;12.70;;;;;;;6.76;100.00;98726.69;4993204;28;20195;-64
2023/03/02 06:35:04;;;;;;;19.45;12.82;;;;;;;6.77;100.00;98734.28;4993544;28;20179;-64
2023/03/02 06:37:30;;;;;;;20.08;13.23;;;;;;;6.93;100.00;98742.94;4993535;28;20266;-64
2023/03/02 06:39:56;;;;;;;26.08;14.35;;;;;;;6.92;100.00;98728.44;4993371;28;20287;-64
2023/03/02 06:42:23;;;;;;;26.00;12.68;;;;;;;7.10;100.00;98745.53;4992810;28;20676;-64
2023/03/02 06:44:50;;;;;;;21.75;12.73;;;;;;;7.20;100.00;98745.91;4993171;28;20183;-64
2023/03/02 06:47:15;;;;;;;20.65;13.25;;;;;;;7.01;100.00;98730.56;4993140;28;20180;-64
2023/03/02 06:49:40;;;;;;;22.73;13.85;;;;;;;7.04;100.00;98738.13;4992639;28;20287;-64
2023/03/02 06:52:06;;;;;;;19.35;13.48;;;;;;;7.12;100.00;98743.69;4991984;28;20207;-64
2023/03/02 06:54:32;;;;;;;20.77;12.50;;;;;;;6.69;100.00;98654.13;4998762;28;20203;-64
2023/03/02 06:56:57;;;;;;;19.77;12.50;;;;;;;7.26;100.00;98740.44;5012648;28;20722;-64
2023/03/02 06:59:23;;;;;;;17.23;11.68;;;;;;;7.19;100.00;98746.81;5012276;28;20286;-64
2023/03/02 07:01:49;;;;;;;23.90;13.75;;;;;;;6.81;100.00;98697.25;5012739;28;20177;-64
2023/03/02 07:04:15;;;;;;;24.30;13.98;;;;;;;7.02;100.00;98724.50;5012716;28;20224;-64
2023/03/02 07:06:40;;;;;;;24.23;13.88;;;;;;;6.73;100.00;98711.38;5012646;28;20646;-64
2023/03/02 07:09:06;;;;;;;20.92;14.25;;;;;;;6.88;100.00;98742.34;5012662;28;20229;-64
2023/03/02 07:11:34;;;;;;;21.15;13.90;;;;;;;6.64;100.00;98710.09;5012818;28;20182;-64
2023/03/02 07:14:00;;;;;;;24.92;15.07;;;;;;;6.81;100.00;98742.72;5011894;28;20171;-64
2023/03/02 07:16:26;;;;;;;28.58;14.38;;;;;;;6.93;100.00;98758.38;5012513;28;20171;-64
2023/03/02 07:18:51;;;;;;;24.10;13.90;;;;;;;6.75;100.00;98715.56;4990508;28;20191;-64
2023/03/02 07:21:16;;;;;;;18.08;12.23;;;;;;;7.05;100.00;98750.06;4990629;28;20246;-64
2023/03/02 07:23:42;;;;;;;17.60;12.35;;;;;;;6.78;100.00;98697.41;4990510;28;20294;-64
2023/03/02 07:26:07;;;;;;;20.25;12.95;;;;;;;7.21;100.00;98756.13;4987890;28;20249;-64
2023/03/02 07:28:38;;;;;;;21.63;13.15;;;;;;;6.98;100.00;98712.69;4990613;28;20190;-64
2023/03/02 07:31:04;;;;;;;21.10;13.23;;;;;;;7.30;100.00;98765.13;4990370;28;20172;-64
2023/03/02 07:33:30;;;;;;;25.95;13.13;;;;;;;7.00;100.00;98767.44;4990487;28;20215;-64
2023/03/02 07:35:56;;;;;;;20.35;12.70;;;;;;;6.85;100.00;98744.22;4990416;28;20246;-64
2023/03/02 07:38:22;;;;;;;17.73;12.32;;;;;;;6.57;100.00;98744.72;4992107;28;20216;-64
2023/03/02 07:40:48;;;;;;;18.00;12.52;;;;;;;6.67;100.00;98758.81;4994435;28;20243;-64
2023/03/02 07:43:13;;;;;;;18.08;12.20;;;;;;;6.62;100.00;98768.47;4994342;28;20709;-64
2023/03/02 07:45:39;;;;;;;23.58;13.38;;;;;;;6.63;100.00;98770.13;4994627;28;20279;-64
2023/03/02 07:48:04;;;;;;;20.30;12.75;;;;;;;6.40;100.00;98764.41;4994375;28;20183;-64
2023/03/02 07:50:30;;;;;;;22.75;12.73;;;;;;;6.47;100.00;98758.06;5011410;28;20558;-65
2023/03/02 07:52:56;;;;;;;17.65;11.98;;;;;;;6.40;100.00;98721.53;5016484;28;20183;-64
2023/03/02 07:55:21;;;;;;;20.88;13.75;;;;;;;6.40;100.00;98744.66;5016248;28;20701;-64
2023/03/02 07:57:47;;;;;;;21.42;11.88;;;;;;;6.55;100.00;98751.69;5015301;28;20175;-65
2023/03/02 08:00:13;;;;;;;23.00;13.80;;;;;;;6.18;100.00;98720.88;5016070;28;20202;-65
2023/03/02 08:02:40;;;;;;;28.48;14.30;;;;;;;6.62;100.00;98765.91;4998610;28;20747;-64
2023/03/02 08:05:06;;;;;;;20.73;12.50;;;;;;;6.49;100.00;98740.84;5016017;28;20206;-64
2023/03/02 08:07:31;;;;;;;46.83;23.95;;;;;;;6.41;100.00;98732.66;5015730;28;20215;-64
2023/03/02 08:09:57;;;;;;;27.63;13.75;;;;;;;6.77;100.00;98757.44;4981395;28;20752;-65
2023/03/02 08:12:22;;;;;;;29.70;15.02;;;;;;;6.34;100.00;98697.84;5016392;28;20174;-65
2023/03/02 08:14:48;;;;;;;28.58;14.40;;;;;;;6.56;100.00;98749.91;5015887;28;20278;-64
2023/03/02 08:17:13;;;;;;;23.98;12.88;;;;;;;6.53;100.00;98742.38;5013386;28;20777;-64
2023/03/02 08:19:39;;;;;;;27.40;14.00;;;;;;;6.23;100.00;98703.50;5013552;28;20222;-64
2023/03/02 08:22:04;;;;;;;23.48;14.25;;;;;;;6.55;100.00;98759.38;5013524;28;20190;-64
2023/03/02 08:24:30;;;;;;;26.70;14.05;;;;;;;6.34;100.00;98698.69;5013255;28;20194;-64
2023/03/02 08:27:00;;;;;;;26.25;12.93;;;;;;;6.72;100.00;98743.16;5013272;28;20279;-65
2023/03/02 08:29:26;;;;;;;34.85;14.60;;;;;;;6.21;100.00;98663.38;4993270;28;20643;-64
2023/03/02 08:31:51;;;;;;;34.05;16.30;;;;;;;6.11;100.00;98682.72;4993556;28;20192;-64
2023/03/02 08:34:17;;;;;;;32.90;15.77;;;;;;;6.59;100.00;98754.94;4993673;28;20270;-64
2023/03/02 08:36:42;;;;;;;35.22;16.45;;;;;;;6.48;100.00;98727.13;4993516;28;20195;-64
2023/03/02 08:39:08;;;;;;;37.80;17.00;;;;;;;6.52;100.00;98697.00;4993358;28;20198;-64
2023/03/02 08:41:34;;;;;;;35.05;17.00;;;;;;;6.87;100.00;98747.56;4993656;28;20656;-64
2023/03/02 08:44:00;;;;;;;45.15;18.65;;;;;;;6.74;100.00;98729.31;4992095;28;20192;-64
2023/03/02 08:46:27;;;;;;;39.53;20.02;;;;;;;6.83;100.00;98728.03;4973258;28;20189;-64
2023/03/02 08:48:53;;;;;;;43.72;18.90;;;;;;;6.67;100.00;98709.09;4958901;28;20583;-64
2023/03/02 08:51:21;;;;;;;32.28;16.60;;;;;;;6.44;100.00;98707.66;4954975;29;20189;-65
2023/03/02 08:53:50;;;;;;;39.83;17.75;;;;;;;6.51;100.00;98703.03;4953789;29;20193;-64
2023/03/02 08:56:20;;;;;;;43.40;19.00;;;;;;;6.89;100.00;98761.19;4954167;29;20189;-64
2023/03/02 08:58:47;;;;;;;43.30;17.77;;;;;;;6.57;100.00;98708.72;4954895;29;20181;-64
2023/03/02 09:01:24;;;;;;;36.03;17.23;;;;;;;6.84;100.00;98735.69;4970471;28;20221;-64
2023/03/02 09:03:50;;;;;;;32.85;17.00;;;;;;;6.67;100.00;98706.53;4973746;28;20223;-65
2023/03/02 09:06:16;;;;;;;33.75;16.98;;;;;;;7.00;100.00;98766.66;4973716;28;20196;-64
2023/03/02 09:08:42;;;;;;;37.05;17.80;;;;;;;6.60;100.00;98692.31;4935115;29;20322;-64
2023/03/02 09:11:07;;;;;;;36.42;16.88;;;;;;;6.94;100.00;98739.47;4935162;29;20190;-64
2023/03/02 09:13:33;;;;;;;38.75;16.38;;;;;;;6.87;100.00;98742.44;4935658;29;20186;-64
2023/03/02 09:16:00;;;;;;;40.00;17.02;;;;;;;7.04;100.00;98745.81;4935155;29;20312;-64
2023/03/02 09:18:26;;;;;;;38.40;17.08;;;;;;;6.84;100.00;98701.41;4952674;29;20189;-64
2023/03/02 09:20:52;;;;;;;40.75;20.27;;;;;;;6.67;100.00;98715.09;4954510;29;20263;-64
2023/03/02 09:23:19;;;;;;;34.63;17.55;;;;;;;6.93;100.00;98757.56;4954511;29;20200;-64
2023/03/02 09:25:48;;;;;;;41.47;17.35;;;;;;;6.88;100.00;98749.22;4953890;29;20211;-64
2023/03/02 09:28:15;;;;;;;42.65;18.45;;;;;;;6.76;100.00;98744.69;4954092;29;20251;-64
2023/03/02 09:30:40;;;;;;;37.78;18.52;;;;;;;6.84;100.00;98752.84;4953800;29;20231;-64
2023/03/02 09:33:06;;;;;;;41.17;21.20;;;;;;;6.43;100.00;98692.28;4954236;29;20185;-65
2023/03/02 09:35:31;;;;;;;37.50;20.63;;;;;;;6.66;100.00;98739.16;4954458;29;20192;-64
2023/03/02 09:37:57;;;;;;;41.47;20.00;;;;;;;6.68;100.00;98739.91;4953968;29;20272;-65
2023/03/02 09:40:25;;;;;;;38.65;19.13;;;;;;;6.71;100.00;98747.44;5001969;28;20268;-64
2023/03/02 09:43:03;;;;;;;41.08;19.40;;;;;;;6.75;100.00;98748.97;5014734;28;20187;-65
2023/03/02 09:45:50;;;;;;;37.92;18.35;;;;;;;6.82;100.00;98744.38;5014437;28;20610;-64
2023/03/02 09:48:56;;;;;;;33.65;15.50;;;;;;;6.86;100.00;98739.00;4992597;28;20231;-64
2023/03/02 09:51:29;;;;;;;30.38;16.08;;;;;;;6.96;100.00;98731.69;4934188;29;20193;-65
2023/03/02 09:54:03;;;;;;;33.35;16.75;;;;;;;6.86;100.00;98730.44;4934540;29;20277;-64
2023/03/02 09:56:29;;;;;;;39.28;17.40;;;;;;;6.86;100.00;98726.16;4934528;29;20614;-65
2023/03/02 09:59:05;;;;;;;40.63;19.98;;;;;;;6.56;100.00;98686.50;4934343;29;20200;-65
2023/03/02 10:01:46;;;;;;;39.38;20.23;;;;;;;6.84;100.00;98709.13;4934155;29;20173;-65
2023/03/02 10:04:22;;;;;;;51.33;22.55;;;;;;;7.05;100.00;98719.19;4934257;29;20683;-65
2023/03/02 10:07:13;;;;;;;31.48;17.67;;;;;;;7.08;100.00;98715.63;4934722;29;20281;-65
2023/03/02 10:09:40;;;;;;;29.90;16.38;;;;;;;6.77;100.00;98693.16;4859392;29;20204;-65
2023/03/02 10:12:17;;;;;;;28.00;15.95;;;;;;;6.96;100.00;98719.66;4859278;29;20192;-65
2023/03/02 10:14:51;;;;;;;30.95;17.00;;;;;;;6.72;100.00;98674.56;4859271;29;20333;-65
2023/03/02 10:17:17;;;;;;;149.27;54.70;;;;;;;7.01;100.00;98724.56;4859062;29;20177;-65
2023/03/02 10:20:24;;;;;;;165.07;61.58;;;;;;;6.47;100.00;98655.28;4858564;29;20726;-65
2023/03/02 10:22:54;;;;;;;56.67;25.88;;;;;;;6.43;100.00;98625.47;4858511;29;20207;-65
2023/03/02 10:25:42;;;;;;;50.08;28.42;;;;;;;6.87;100.00;98720.09;4879183;29;20187;-65
2023/03/02 10:28:20;;;;;;;26.38;15.75;;;;;;;6.81;100.00;98728.13;4896316;29;20277;-65
2023/03/02 10:31:15;;;;;;;31.50;17.35;;;;;;;6.65;100.00;98705.78;4896324;29;20199;-65
2023/03/02 10:33:40;;;;;;;29.65;16.23;;;;;;;6.54;100.00;98679.75;4894041;29;20598;-65
2023/03/02 10:36:28;;;;;;;29.00;18.50;;;;;;;6.78;100.00;98710.28;4896121;29;20187;-65
2023/03/02 10:38:56;;;;;;;29.27;16.85;;;;;;;6.59;100.00;98668.34;4895910;29;20263;-65
2023/03/02 10:41:40;;;;;;;35.47;18.08;;;;;;;6.59;100.00;98660.63;4940889;29;20636;-65
2023/03/02 10:44:14;;;;;;;30.27;18.70;;;;;;;6.69;100.00;98708.13;4953273;29;20717;-65
2023/03/02 10:46:42;;;;;;;23.10;14.93;;;;;;;6.75;100.00;98701.88;4952556;29;20161;-65
2023/03/02 10:49:45;;;;;;;21.15;15.25;;;;;;;6.81;100.00;98699.81;4952626;29;20352;-65
2023/03/02 10:52:13;;;;;;;25.13;15.32;;;;;;;6.61;100.00;98640.00;4876802;29;20195;-65
2023/03/02 10:54:39;;;;;;;26.23;15.45;;;;;;;6.85;100.00;98688.50;4888517;29;20225;-65
2023/03/02 10:57:21;;;;;;;30.13;18.70;;;;;;;6.29;100.00;98590.16;4895983;29;20207;-65
2023/03/02 10:59:50;;;;;;;85.82;43.97;;;;;;;6.20;100.00;98593.19;4895299;29;20215;-65
2023/03/02 11:02:21;;;;;;;50.65;27.85;;;;;;;6.67;100.00;98673.13;4895736;29;20187;-65
2023/03/02 11:04:52;;;;;;;26.67;17.17;;;;;;;6.35;100.00;98615.56;4895418;29;20195;-64
2023/03/02 11:07:20;;;;;;;41.45;24.23;;;;;;;6.69;100.00;98686.72;4895776;29;20179;-65
2023/03/02 11:10:05;;;;;;;39.63;21.70;;;;;;;6.50;100.00;98644.81;4903787;29;20217;-64
2023/03/02 11:12:34;;;;;;;130.15;42.53;;;;;;;6.38;100.00;98630.84;4913835;29;20178;-65
2023/03/02 11:15:14;;;;;;;46.22;20.60;;;;;;;6.70;100.00;98683.28;4914126;29;20190;-65
2023/03/02 11:17:42;;;;;;;27.50;15.32;;;;;;;6.63;100.00;98680.16;4876530;29;20689;-65
2023/03/02 11:20:16;;;;;;;29.95;17.80;;;;;;;6.63;100.00;98677.59;4876916;29;20291;-65
2023/03/02 11:23:02;;;;;;;25.10;16.05;;;;;;;6.31;100.00;98631.22;4876712;29;20225;-65
2023/03/02 11:25:34;;;;;;;133.65;46.92;;;;;;;6.27;100.00;98655.38;4876811;29;20709;-64